sensor_id;sensor_type;location;lat;lon;timestamp;P1;durP1;ratioP1;P2;durP2;ratioP2
70899;SDS011;67902;52.154;5.430;2023-11-22T00:01:48;14.75;;;5.32;;
70899;SDS011;67902;52.154;5.430;2023-11-22T00:04:15;15.18;;;6.15;;
70899;SDS011;67902;52.154;5.430;2023-11-22T00:06:41;13.55;;;5.25;;
70899;SDS011;67902;52.154;5.430;2023-11-22T00:09:08;19.98;;;6.70;;
70899;SDS011;67902;52.154;5.430;2023-11-22T00:11:34;18.70;;;6.32;;
70899;SDS011;67902;52.154;5.430;2023-11-22T00:14:01;13.77;;;5.60;;
70899;SDS011;67902;52.154;5.430;2023-11-22T00:18:56;18.20;;;7.13;;
70899;SDS011;67902;52.154;5.430;2023-11-22T00:21:23;14.90;;;6.60;;
70899;SDS011;67902;52.154;5.430;2023-11-22T00:23:51;18.30;;;6.72;;
70899;SDS011;67902;52.154;5.430;2023-11-22T00:26:17;18.55;;;6.47;;
70899;SDS011;67902;52.154;5.430;2023-11-22T00:28:44;14.70;;;6.43;;
70899;SDS011;67902;52.154;5.430;2023-11-22T00:31:10;15.38;;;6.15;;
70899;SDS011;67902;52.154;5.430;2023-11-22T00:33:37;17.10;;;6.78;;
70899;SDS011;67902;52.154;5.430;2023-11-22T00:36:04;17.55;;;6.05;;
70899;SDS011;67902;52.154;5.430;2023-11-22T00:38:30;15.90;;;5.95;;
70899;SDS011;67902;52.154;5.430;2023-11-22T00:40:57;14.07;;;5.20;;
70899;SDS011;67902;52.154;5.430;2023-11-22T00:43:26;16.23;;;6.88;;
70899;SDS011;67902;52.154;5.430;2023-11-22T00:45:52;15.85;;;5.82;;
70899;SDS011;67902;52.154;5.430;2023-11-22T00:48:19;20.33;;;6.97;;
70899;SDS011;67902;52.154;5.430;2023-11-22T00:50:46;20.40;;;7.15;;
70899;SDS011;67902;52.154;5.430;2023-11-22T00:53:12;18.23;;;6.57;;
70899;SDS011;67902;52.154;5.430;2023-11-22T00:55:40;15.98;;;6.57;;
70899;SDS011;67902;52.154;5.430;2023-11-22T00:58:08;14.88;;;6.63;;
70899;SDS011;67902;52.154;5.430;2023-11-22T01:00:34;18.90;;;6.43;;
70899;SDS011;67902;52.154;5.430;2023-11-22T01:03:01;15.27;;;5.80;;
70899;SDS011;67902;52.154;5.430;2023-11-22T01:05:27;19.67;;;6.75;;
70899;SDS011;67902;52.154;5.430;2023-11-22T01:07:55;15.57;;;5.57;;
70899;SDS011;67902;52.154;5.430;2023-11-22T01:10:22;11.77;;;5.15;;
70899;SDS011;67902;52.154;5.430;2023-11-22T01:12:48;15.50;;;5.93;;
70899;SDS011;67902;52.154;5.430;2023-11-22T01:15:15;21.33;;;5.78;;
70899;SDS011;67902;52.154;5.430;2023-11-22T01:17:42;14.07;;;5.47;;
70899;SDS011;67902;52.154;5.430;2023-11-22T01:20:09;13.52;;;5.90;;
70899;SDS011;67902;52.154;5.430;2023-11-22T01:22:40;13.35;;;5.32;;
70899;SDS011;67902;52.154;5.430;2023-11-22T01:25:06;13.32;;;5.35;;
70899;SDS011;67902;52.154;5.430;2023-11-22T01:27:33;13.40;;;5.43;;
70899;SDS011;67902;52.154;5.430;2023-11-22T01:29:59;13.00;;;5.65;;
70899;SDS011;67902;52.154;5.430;2023-11-22T01:32:26;12.10;;;4.95;;
70899;SDS011;67902;52.154;5.430;2023-11-22T01:34:52;11.52;;;4.78;;
70899;SDS011;67902;52.154;5.430;2023-11-22T01:37:18;12.10;;;4.45;;
70899;SDS011;67902;52.154;5.430;2023-11-22T01:39:45;12.60;;;5.13;;
70899;SDS011;67902;52.154;5.430;2023-11-22T01:42:12;11.95;;;4.70;;
70899;SDS011;67902;52.154;5.430;2023-11-22T01:44:38;13.82;;;5.07;;
70899;SDS011;67902;52.154;5.430;2023-11-22T01:47:05;13.38;;;4.97;;
70899;SDS011;67902;52.154;5.430;2023-11-22T01:49:32;15.45;;;5.20;;
70899;SDS011;67902;52.154;5.430;2023-11-22T01:51:59;17.45;;;6.63;;
70899;SDS011;67902;52.154;5.430;2023-11-22T01:54:27;17.98;;;6.43;;
70899;SDS011;67902;52.154;5.430;2023-11-22T01:56:55;16.88;;;6.65;;
70899;SDS011;67902;52.154;5.430;2023-11-22T01:59:22;17.52;;;5.90;;
70899;SDS011;67902;52.154;5.430;2023-11-22T02:01:49;14.38;;;4.88;;
70899;SDS011;67902;52.154;5.430;2023-11-22T02:04:15;13.05;;;4.85;;
70899;SDS011;67902;52.154;5.430;2023-11-22T02:06:42;12.10;;;5.07;;
70899;SDS011;67902;52.154;5.430;2023-11-22T02:09:08;12.20;;;4.95;;
70899;SDS011;67902;52.154;5.430;2023-11-22T02:11:39;16.25;;;5.80;;
70899;SDS011;67902;52.154;5.430;2023-11-22T02:14:08;16.23;;;5.93;;
70899;SDS011;67902;52.154;5.430;2023-11-22T02:16:35;15.77;;;5.50;;
70899;SDS011;67902;52.154;5.430;2023-11-22T02:19:03;14.57;;;5.13;;
70899;SDS011;67902;52.154;5.430;2023-11-22T02:21:33;14.63;;;5.95;;
70899;SDS011;67902;52.154;5.430;2023-11-22T02:24:00;14.48;;;5.20;;
70899;SDS011;67902;52.154;5.430;2023-11-22T02:26:26;16.73;;;6.93;;
70899;SDS011;67902;52.154;5.430;2023-11-22T02:28:52;16.90;;;6.20;;
70899;SDS011;67902;52.154;5.430;2023-11-22T02:31:19;12.90;;;4.93;;
70899;SDS011;67902;52.154;5.430;2023-11-22T02:33:45;17.75;;;5.25;;
70899;SDS011;67902;52.154;5.430;2023-11-22T02:36:12;12.75;;;4.88;;
70899;SDS011;67902;52.154;5.430;2023-11-22T02:38:39;12.18;;;4.55;;
70899;SDS011;67902;52.154;5.430;2023-11-22T02:41:07;16.42;;;5.95;;
70899;SDS011;67902;52.154;5.430;2023-11-22T02:43:35;14.38;;;5.05;;
70899;SDS011;67902;52.154;5.430;2023-11-22T02:46:02;13.27;;;5.07;;
70899;SDS011;67902;52.154;5.430;2023-11-22T02:48:30;14.82;;;5.85;;
70899;SDS011;67902;52.154;5.430;2023-11-22T02:50:56;14.85;;;5.78;;
70899;SDS011;67902;52.154;5.430;2023-11-22T02:53:23;15.50;;;5.65;;
70899;SDS011;67902;52.154;5.430;2023-11-22T02:55:49;12.95;;;5.05;;
70899;SDS011;67902;52.154;5.430;2023-11-22T02:58:16;16.77;;;5.78;;
70899;SDS011;67902;52.154;5.430;2023-11-22T03:00:43;15.98;;;5.90;;
70899;SDS011;67902;52.154;5.430;2023-11-22T03:03:09;13.90;;;5.07;;
70899;SDS011;67902;52.154;5.430;2023-11-22T03:05:37;12.45;;;5.20;;
70899;SDS011;67902;52.154;5.430;2023-11-22T03:08:04;11.95;;;4.45;;
70899;SDS011;67902;52.154;5.430;2023-11-22T03:10:33;10.32;;;4.60;;
70899;SDS011;67902;52.154;5.430;2023-11-22T03:13:00;12.63;;;5.30;;
70899;SDS011;67902;52.154;5.430;2023-11-22T03:15:26;10.88;;;4.88;;
70899;SDS011;67902;52.154;5.430;2023-11-22T03:17:53;13.77;;;4.80;;
70899;SDS011;67902;52.154;5.430;2023-11-22T03:20:20;11.50;;;4.78;;
70899;SDS011;67902;52.154;5.430;2023-11-22T03:22:47;10.70;;;4.32;;
70899;SDS011;67902;52.154;5.430;2023-11-22T03:25:16;12.93;;;4.50;;
70899;SDS011;67902;52.154;5.430;2023-11-22T03:27:44;11.57;;;4.38;;
70899;SDS011;67902;52.154;5.430;2023-11-22T03:30:12;14.07;;;4.40;;
70899;SDS011;67902;52.154;5.430;2023-11-22T03:32:40;12.48;;;4.72;;
70899;SDS011;67902;52.154;5.430;2023-11-22T03:35:07;16.23;;;4.63;;
70899;SDS011;67902;52.154;5.430;2023-11-22T03:37:34;15.02;;;5.20;;
70899;SDS011;67902;52.154;5.430;2023-11-22T03:40:01;11.10;;;4.88;;
70899;SDS011;67902;52.154;5.430;2023-11-22T03:42:31;13.15;;;4.43;;
70899;SDS011;67902;52.154;5.430;2023-11-22T03:44:57;11.35;;;4.57;;
70899;SDS011;67902;52.154;5.430;2023-11-22T03:49:52;12.05;;;4.57;;
70899;SDS011;67902;52.154;5.430;2023-11-22T03:52:19;12.63;;;4.63;;
70899;SDS011;67902;52.154;5.430;2023-11-22T03:54:45;10.60;;;4.60;;
70899;SDS011;67902;52.154;5.430;2023-11-22T03:57:12;11.82;;;4.35;;
70899;SDS011;67902;52.154;5.430;2023-11-22T03:59:40;12.27;;;4.82;;
70899;SDS011;67902;52.154;5.430;2023-11-22T04:02:06;13.75;;;5.40;;
70899;SDS011;67902;52.154;5.430;2023-11-22T04:04:33;13.65;;;4.75;;
70899;SDS011;67902;52.154;5.430;2023-11-22T04:07:00;11.43;;;4.53;;
70899;SDS011;67902;52.154;5.430;2023-11-22T04:09:26;16.65;;;5.40;;
70899;SDS011;67902;52.154;5.430;2023-11-22T04:11:53;14.50;;;5.30;;
70899;SDS011;67902;52.154;5.430;2023-11-22T04:14:19;15.38;;;5.30;;
70899;SDS011;67902;52.154;5.430;2023-11-22T04:16:48;11.73;;;4.78;;
70899;SDS011;67902;52.154;5.430;2023-11-22T04:19:15;12.63;;;4.53;;
70899;SDS011;67902;52.154;5.430;2023-11-22T04:21:41;14.98;;;5.65;;
70899;SDS011;67902;52.154;5.430;2023-11-22T04:24:08;11.93;;;4.47;;
70899;SDS011;67902;52.154;5.430;2023-11-22T04:26:34;12.57;;;4.10;;
70899;SDS011;67902;52.154;5.430;2023-11-22T04:29:01;10.27;;;3.20;;
70899;SDS011;67902;52.154;5.430;2023-11-22T04:31:27;8.20;;;3.17;;
70899;SDS011;67902;52.154;5.430;2023-11-22T04:33:54;10.32;;;2.90;;
70899;SDS011;67902;52.154;5.430;2023-11-22T04:36:23;9.07;;;3.50;;
70899;SDS011;67902;52.154;5.430;2023-11-22T04:38:50;10.05;;;3.72;;
70899;SDS011;67902;52.154;5.430;2023-11-22T04:41:17;11.90;;;4.32;;
70899;SDS011;67902;52.154;5.430;2023-11-22T04:43:44;13.75;;;4.53;;
70899;SDS011;67902;52.154;5.430;2023-11-22T04:46:11;14.32;;;5.78;;
70899;SDS011;67902;52.154;5.430;2023-11-22T04:48:37;14.65;;;5.35;;
70899;SDS011;67902;52.154;5.430;2023-11-22T04:51:06;15.05;;;5.60;;
70899;SDS011;67902;52.154;5.430;2023-11-22T04:53:33;11.82;;;4.78;;
70899;SDS011;67902;52.154;5.430;2023-11-22T04:55:59;11.55;;;4.50;;
70899;SDS011;67902;52.154;5.430;2023-11-22T04:58:28;9.63;;;3.22;;
70899;SDS011;67902;52.154;5.430;2023-11-22T05:00:54;10.73;;;4.25;;
70899;SDS011;67902;52.154;5.430;2023-11-22T05:03:22;11.02;;;4.05;;
70899;SDS011;67902;52.154;5.430;2023-11-22T05:05:50;10.98;;;4.20;;
70899;SDS011;67902;52.154;5.430;2023-11-22T05:08:17;12.73;;;3.95;;
70899;SDS011;67902;52.154;5.430;2023-11-22T05:10:43;11.23;;;4.57;;
70899;SDS011;67902;52.154;5.430;2023-11-22T05:13:10;15.27;;;5.40;;
70899;SDS011;67902;52.154;5.430;2023-11-22T05:15:37;19.15;;;6.25;;
70899;SDS011;67902;52.154;5.430;2023-11-22T05:18:04;13.05;;;5.47;;
70899;SDS011;67902;52.154;5.430;2023-11-22T05:20:32;14.85;;;5.72;;
70899;SDS011;67902;52.154;5.430;2023-11-22T05:22:59;14.80;;;4.35;;
70899;SDS011;67902;52.154;5.430;2023-11-22T05:25:25;14.45;;;5.18;;
70899;SDS011;67902;52.154;5.430;2023-11-22T05:27:52;18.45;;;5.85;;
70899;SDS011;67902;52.154;5.430;2023-11-22T05:30:18;11.38;;;4.53;;
70899;SDS011;67902;52.154;5.430;2023-11-22T05:32:45;26.98;;;3.28;;
70899;SDS011;67902;52.154;5.430;2023-11-22T05:35:11;8.02;;;2.92;;
70899;SDS011;67902;52.154;5.430;2023-11-22T05:37:39;10.55;;;3.35;;
70899;SDS011;67902;52.154;5.430;2023-11-22T05:40:05;12.65;;;4.38;;
70899;SDS011;67902;52.154;5.430;2023-11-22T05:42:35;12.18;;;4.60;;
70899;SDS011;67902;52.154;5.430;2023-11-22T05:45:03;14.13;;;4.90;;
70899;SDS011;67902;52.154;5.430;2023-11-22T05:47:32;13.18;;;5.18;;
70899;SDS011;67902;52.154;5.430;2023-11-22T05:49:58;13.65;;;5.30;;
70899;SDS011;67902;52.154;5.430;2023-11-22T05:52:25;15.10;;;5.00;;
70899;SDS011;67902;52.154;5.430;2023-11-22T05:54:51;16.65;;;5.25;;
70899;SDS011;67902;52.154;5.430;2023-11-22T05:57:18;13.38;;;4.13;;
70899;SDS011;67902;52.154;5.430;2023-11-22T05:59:46;12.95;;;4.07;;
70899;SDS011;67902;52.154;5.430;2023-11-22T06:02:12;12.98;;;3.85;;
70899;SDS011;67902;52.154;5.430;2023-11-22T06:04:39;10.77;;;3.85;;
70899;SDS011;67902;52.154;5.430;2023-11-22T06:07:08;33.25;;;5.07;;
70899;SDS011;67902;52.154;5.430;2023-11-22T06:09:34;11.25;;;3.38;;
70899;SDS011;67902;52.154;5.430;2023-11-22T06:12:03;12.85;;;4.68;;
70899;SDS011;67902;52.154;5.430;2023-11-22T06:14:30;21.40;;;5.45;;
70899;SDS011;67902;52.154;5.430;2023-11-22T06:16:56;12.68;;;4.30;;
70899;SDS011;67902;52.154;5.430;2023-11-22T06:19:23;12.57;;;4.45;;
70899;SDS011;67902;52.154;5.430;2023-11-22T06:21:50;16.50;;;4.75;;
70899;SDS011;67902;52.154;5.430;2023-11-22T06:24:16;11.02;;;3.95;;
70899;SDS011;67902;52.154;5.430;2023-11-22T06:26:43;12.15;;;4.30;;
70899;SDS011;67902;52.154;5.430;2023-11-22T06:29:12;14.20;;;4.90;;
70899;SDS011;67902;52.154;5.430;2023-11-22T06:31:39;13.43;;;5.10;;
70899;SDS011;67902;52.154;5.430;2023-11-22T06:34:07;17.30;;;5.80;;
70899;SDS011;67902;52.154;5.430;2023-11-22T06:36:34;17.35;;;5.80;;
70899;SDS011;67902;52.154;5.430;2023-11-22T06:39:00;15.32;;;5.40;;
70899;SDS011;67902;52.154;5.430;2023-11-22T06:41:27;13.95;;;5.35;;
70899;SDS011;67902;52.154;5.430;2023-11-22T06:43:55;17.55;;;6.97;;
70899;SDS011;67902;52.154;5.430;2023-11-22T06:46:21;15.05;;;5.85;;
70899;SDS011;67902;52.154;5.430;2023-11-22T06:48:49;16.83;;;6.47;;
70899;SDS011;67902;52.154;5.430;2023-11-22T06:51:16;17.42;;;6.68;;
70899;SDS011;67902;52.154;5.430;2023-11-22T06:53:44;17.95;;;6.50;;
70899;SDS011;67902;52.154;5.430;2023-11-22T06:56:12;16.17;;;6.25;;
70899;SDS011;67902;52.154;5.430;2023-11-22T06:58:38;16.20;;;6.22;;
70899;SDS011;67902;52.154;5.430;2023-11-22T07:01:05;22.00;;;7.03;;
70899;SDS011;67902;52.154;5.430;2023-11-22T07:03:33;15.43;;;5.93;;
70899;SDS011;67902;52.154;5.430;2023-11-22T07:06:00;17.70;;;6.80;;
70899;SDS011;67902;52.154;5.430;2023-11-22T07:08:26;16.63;;;5.90;;
70899;SDS011;67902;52.154;5.430;2023-11-22T07:10:54;19.95;;;6.15;;
70899;SDS011;67902;52.154;5.430;2023-11-22T07:13:23;21.63;;;6.93;;
70899;SDS011;67902;52.154;5.430;2023-11-22T07:15:50;18.10;;;7.07;;
70899;SDS011;67902;52.154;5.430;2023-11-22T07:18:17;19.33;;;6.82;;
70899;SDS011;67902;52.154;5.430;2023-11-22T07:20:44;22.08;;;6.80;;
70899;SDS011;67902;52.154;5.430;2023-11-22T07:23:11;20.15;;;7.18;;
70899;SDS011;67902;52.154;5.430;2023-11-22T07:25:40;18.58;;;6.70;;
70899;SDS011;67902;52.154;5.430;2023-11-22T07:28:07;18.33;;;6.97;;
70899;SDS011;67902;52.154;5.430;2023-11-22T07:30:34;20.30;;;6.38;;
70899;SDS011;67902;52.154;5.430;2023-11-22T07:33:05;16.83;;;6.03;;
70899;SDS011;67902;52.154;5.430;2023-11-22T07:35:32;18.15;;;6.72;;
70899;SDS011;67902;52.154;5.430;2023-11-22T07:37:59;19.77;;;7.20;;
70899;SDS011;67902;52.154;5.430;2023-11-22T07:40:26;18.55;;;7.13;;
70899;SDS011;67902;52.154;5.430;2023-11-22T07:42:52;18.85;;;6.63;;
70899;SDS011;67902;52.154;5.430;2023-11-22T07:47:48;18.38;;;6.05;;
70899;SDS011;67902;52.154;5.430;2023-11-22T07:50:15;18.58;;;7.07;;
70899;SDS011;67902;52.154;5.430;2023-11-22T07:52:41;20.15;;;6.43;;
70899;SDS011;67902;52.154;5.430;2023-11-22T07:55:08;16.45;;;6.38;;
70899;SDS011;67902;52.154;5.430;2023-11-22T07:57:37;17.10;;;6.93;;
70899;SDS011;67902;52.154;5.430;2023-11-22T08:00:07;18.88;;;6.38;;
70899;SDS011;67902;52.154;5.430;2023-11-22T08:02:34;16.02;;;6.05;;
70899;SDS011;67902;52.154;5.430;2023-11-22T08:05:03;17.15;;;7.07;;
70899;SDS011;67902;52.154;5.430;2023-11-22T08:07:35;26.25;;;8.55;;
70899;SDS011;67902;52.154;5.430;2023-11-22T08:10:05;20.15;;;7.88;;
70899;SDS011;67902;52.154;5.430;2023-11-22T08:12:36;16.02;;;6.43;;
70899;SDS011;67902;52.154;5.430;2023-11-22T08:15:05;20.63;;;7.30;;
70899;SDS011;67902;52.154;5.430;2023-11-22T08:17:31;18.70;;;7.68;;
70899;SDS011;67902;52.154;5.430;2023-11-22T08:19:59;19.48;;;7.75;;
70899;SDS011;67902;52.154;5.430;2023-11-22T08:22:26;23.17;;;7.50;;
70899;SDS011;67902;52.154;5.430;2023-11-22T08:24:55;18.60;;;7.55;;
70899;SDS011;67902;52.154;5.430;2023-11-22T08:29:50;15.90;;;6.72;;
70899;SDS011;67902;52.154;5.430;2023-11-22T08:32:17;24.98;;;7.53;;
70899;SDS011;67902;52.154;5.430;2023-11-22T08:34:47;17.70;;;7.10;;
70899;SDS011;67902;52.154;5.430;2023-11-22T08:37:13;18.25;;;7.82;;
70899;SDS011;67902;52.154;5.430;2023-11-22T08:39:40;16.65;;;7.22;;
70899;SDS011;67902;52.154;5.430;2023-11-22T08:42:06;18.30;;;7.32;;
70899;SDS011;67902;52.154;5.430;2023-11-22T08:44:36;17.33;;;6.45;;
70899;SDS011;67902;52.154;5.430;2023-11-22T08:47:03;16.25;;;6.30;;
70899;SDS011;67902;52.154;5.430;2023-11-22T08:49:30;15.82;;;6.57;;
70899;SDS011;67902;52.154;5.430;2023-11-22T08:51:56;18.73;;;6.80;;
70899;SDS011;67902;52.154;5.430;2023-11-22T08:54:25;16.20;;;6.85;;
70899;SDS011;67902;52.154;5.430;2023-11-22T08:56:58;20.10;;;8.40;;
70899;SDS011;67902;52.154;5.430;2023-11-22T08:59:24;18.10;;;7.07;;
70899;SDS011;67902;52.154;5.430;2023-11-22T09:01:51;18.23;;;7.63;;
70899;SDS011;67902;52.154;5.430;2023-11-22T09:04:17;17.38;;;7.55;;
70899;SDS011;67902;52.154;5.430;2023-11-22T09:06:44;20.42;;;8.30;;
70899;SDS011;67902;52.154;5.430;2023-11-22T09:09:13;22.52;;;8.52;;
70899;SDS011;67902;52.154;5.430;2023-11-22T09:11:42;20.77;;;7.70;;
70899;SDS011;67902;52.154;5.430;2023-11-22T09:14:09;20.02;;;8.65;;
70899;SDS011;67902;52.154;5.430;2023-11-22T09:16:37;21.92;;;8.90;;
70899;SDS011;67902;52.154;5.430;2023-11-22T09:19:05;19.75;;;7.82;;
70899;SDS011;67902;52.154;5.430;2023-11-22T09:21:34;18.80;;;8.15;;
70899;SDS011;67902;52.154;5.430;2023-11-22T09:24:01;21.38;;;8.45;;
70899;SDS011;67902;52.154;5.430;2023-11-22T09:26:27;19.88;;;7.82;;
70899;SDS011;67902;52.154;5.430;2023-11-22T09:28:55;17.52;;;8.27;;
70899;SDS011;67902;52.154;5.430;2023-11-22T09:31:22;20.75;;;7.18;;
70899;SDS011;67902;52.154;5.430;2023-11-22T09:33:48;18.20;;;7.20;;
70899;SDS011;67902;52.154;5.430;2023-11-22T09:36:15;21.95;;;8.13;;
70899;SDS011;67902;52.154;5.430;2023-11-22T09:38:41;21.15;;;8.10;;
70899;SDS011;67902;52.154;5.430;2023-11-22T09:41:08;17.92;;;7.35;;
70899;SDS011;67902;52.154;5.430;2023-11-22T09:43:35;19.75;;;8.07;;
70899;SDS011;67902;52.154;5.430;2023-11-22T09:46:02;20.67;;;8.13;;
70899;SDS011;67902;52.154;5.430;2023-11-22T09:48:29;21.70;;;7.97;;
70899;SDS011;67902;52.154;5.430;2023-11-22T09:51:04;20.95;;;7.65;;
70899;SDS011;67902;52.154;5.430;2023-11-22T09:53:36;19.83;;;7.95;;
70899;SDS011;67902;52.154;5.430;2023-11-22T09:56:07;20.30;;;7.93;;
70899;SDS011;67902;52.154;5.430;2023-11-22T09:58:38;18.95;;;7.43;;
70899;SDS011;67902;52.154;5.430;2023-11-22T10:01:13;18.63;;;7.10;;
70899;SDS011;67902;52.154;5.430;2023-11-22T10:03:40;18.13;;;7.63;;
70899;SDS011;67902;52.154;5.430;2023-11-22T10:06:07;18.95;;;8.00;;
70899;SDS011;67902;52.154;5.430;2023-11-22T10:08:34;16.55;;;7.18;;
70899;SDS011;67902;52.154;5.430;2023-11-22T10:11:03;21.77;;;7.32;;
70899;SDS011;67902;52.154;5.430;2023-11-22T10:13:30;20.65;;;7.78;;
70899;SDS011;67902;52.154;5.430;2023-11-22T10:15:56;21.92;;;7.85;;
70899;SDS011;67902;52.154;5.430;2023-11-22T10:18:42;20.15;;;8.20;;
70899;SDS011;67902;52.154;5.430;2023-11-22T10:23:54;19.90;;;6.85;;
70899;SDS011;67902;52.154;5.430;2023-11-22T10:26:24;18.10;;;6.97;;
70899;SDS011;67902;52.154;5.430;2023-11-22T10:28:54;17.83;;;7.07;;
70899;SDS011;67902;52.154;5.430;2023-11-22T10:31:21;18.15;;;6.95;;
70899;SDS011;67902;52.154;5.430;2023-11-22T10:33:49;17.25;;;7.70;;
70899;SDS011;67902;52.154;5.430;2023-11-22T10:36:16;14.13;;;6.43;;
70899;SDS011;67902;52.154;5.430;2023-11-22T10:38:46;15.57;;;6.57;;
70899;SDS011;67902;52.154;5.430;2023-11-22T10:43:41;14.07;;;5.93;;
70899;SDS011;67902;52.154;5.430;2023-11-22T10:46:12;21.30;;;7.00;;
70899;SDS011;67902;52.154;5.430;2023-11-22T10:48:40;18.30;;;6.45;;
70899;SDS011;67902;52.154;5.430;2023-11-22T10:51:06;20.05;;;7.40;;
70899;SDS011;67902;52.154;5.430;2023-11-22T10:53:42;19.98;;;7.78;;
70899;SDS011;67902;52.154;5.430;2023-11-22T10:56:16;17.67;;;6.55;;
70899;SDS011;67902;52.154;5.430;2023-11-22T10:58:47;19.55;;;8.00;;
70899;SDS011;67902;52.154;5.430;2023-11-22T11:01:20;17.63;;;7.55;;
70899;SDS011;67902;52.154;5.430;2023-11-22T11:06:23;17.63;;;6.50;;
70899;SDS011;67902;52.154;5.430;2023-11-22T11:08:55;18.92;;;7.90;;
70899;SDS011;67902;52.154;5.430;2023-11-22T11:11:29;17.95;;;7.15;;
70899;SDS011;67902;52.154;5.430;2023-11-22T11:13:58;14.77;;;4.93;;
70899;SDS011;67902;52.154;5.430;2023-11-22T11:16:27;16.95;;;7.45;;
70899;SDS011;67902;52.154;5.430;2023-11-22T11:18:57;18.75;;;7.93;;
70899;SDS011;67902;52.154;5.430;2023-11-22T11:21:24;15.45;;;5.90;;
70899;SDS011;67902;52.154;5.430;2023-11-22T11:23:52;16.33;;;7.35;;
70899;SDS011;67902;52.154;5.430;2023-11-22T11:26:24;17.40;;;7.35;;
70899;SDS011;67902;52.154;5.430;2023-11-22T11:28:52;16.17;;;7.30;;
70899;SDS011;67902;52.154;5.430;2023-11-22T11:36:27;15.00;;;6.35;;
70899;SDS011;67902;52.154;5.430;2023-11-22T11:38:56;15.18;;;5.72;;
70899;SDS011;67902;52.154;5.430;2023-11-22T11:41:28;17.65;;;7.85;;
70899;SDS011;67902;52.154;5.430;2023-11-22T11:43:56;19.15;;;7.35;;
70899;SDS011;67902;52.154;5.430;2023-11-22T11:46:25;18.60;;;7.97;;
70899;SDS011;67902;52.154;5.430;2023-11-22T11:48:53;19.98;;;8.32;;
70899;SDS011;67902;52.154;5.430;2023-11-22T11:51:24;17.48;;;7.45;;
70899;SDS011;67902;52.154;5.430;2023-11-22T11:53:52;17.95;;;7.40;;
70899;SDS011;67902;52.154;5.430;2023-11-22T11:56:20;21.70;;;7.88;;
70899;SDS011;67902;52.154;5.430;2023-11-22T11:58:48;16.30;;;7.50;;
70899;SDS011;67902;52.154;5.430;2023-11-22T12:01:18;14.00;;;6.75;;
70899;SDS011;67902;52.154;5.430;2023-11-22T12:03:49;16.83;;;6.95;;
70899;SDS011;67902;52.154;5.430;2023-11-22T12:06:19;18.33;;;7.47;;
70899;SDS011;67902;52.154;5.430;2023-11-22T12:08:46;14.85;;;6.10;;
70899;SDS011;67902;52.154;5.430;2023-11-22T12:11:14;17.95;;;7.85;;
70899;SDS011;67902;52.154;5.430;2023-11-22T12:13:42;17.88;;;7.28;;
70899;SDS011;67902;52.154;5.430;2023-11-22T12:16:16;14.52;;;6.57;;
70899;SDS011;67902;52.154;5.430;2023-11-22T12:18:45;16.08;;;6.28;;
70899;SDS011;67902;52.154;5.430;2023-11-22T12:21:15;15.95;;;6.75;;
70899;SDS011;67902;52.154;5.430;2023-11-22T12:23:46;14.65;;;7.03;;
70899;SDS011;67902;52.154;5.430;2023-11-22T12:26:15;18.88;;;6.78;;
70899;SDS011;67902;52.154;5.430;2023-11-22T12:28:47;14.77;;;6.32;;
70899;SDS011;67902;52.154;5.430;2023-11-22T12:31:29;14.73;;;6.78;;
70899;SDS011;67902;52.154;5.430;2023-11-22T12:34:00;17.13;;;7.18;;
70899;SDS011;67902;52.154;5.430;2023-11-22T12:36:28;14.90;;;6.80;;
70899;SDS011;67902;52.154;5.430;2023-11-22T12:41:26;15.75;;;6.60;;
70899;SDS011;67902;52.154;5.430;2023-11-22T12:44:11;17.20;;;7.85;;
70899;SDS011;67902;52.154;5.430;2023-11-22T12:47:12;16.63;;;7.80;;
70899;SDS011;67902;52.154;5.430;2023-11-22T12:49:44;16.15;;;7.05;;
70899;SDS011;67902;52.154;5.430;2023-11-22T12:52:13;19.05;;;8.00;;
70899;SDS011;67902;52.154;5.430;2023-11-22T12:54:40;19.60;;;8.82;;
70899;SDS011;67902;52.154;5.430;2023-11-22T12:57:10;17.42;;;8.50;;
70899;SDS011;67902;52.154;5.430;2023-11-22T12:59:38;21.10;;;8.38;;
70899;SDS011;67902;52.154;5.430;2023-11-22T13:02:07;19.45;;;8.65;;
70899;SDS011;67902;52.154;5.430;2023-11-22T13:04:33;23.63;;;9.23;;
70899;SDS011;67902;52.154;5.430;2023-11-22T13:07:00;20.33;;;8.27;;
70899;SDS011;67902;52.154;5.430;2023-11-22T13:09:27;20.45;;;8.93;;
70899;SDS011;67902;52.154;5.430;2023-11-22T13:11:53;17.92;;;7.03;;
70899;SDS011;67902;52.154;5.430;2023-11-22T13:14:20;19.48;;;8.68;;
70899;SDS011;67902;52.154;5.430;2023-11-22T13:16:46;23.30;;;9.43;;
70899;SDS011;67902;52.154;5.430;2023-11-22T13:19:13;22.15;;;9.30;;
70899;SDS011;67902;52.154;5.430;2023-11-22T13:21:40;20.92;;;8.88;;
70899;SDS011;67902;52.154;5.430;2023-11-22T13:24:07;19.42;;;7.63;;
70899;SDS011;67902;52.154;5.430;2023-11-22T13:26:34;16.55;;;7.07;;
70899;SDS011;67902;52.154;5.430;2023-11-22T13:29:01;18.48;;;8.27;;
70899;SDS011;67902;52.154;5.430;2023-11-22T13:31:27;17.50;;;7.80;;
70899;SDS011;67902;52.154;5.430;2023-11-22T13:33:54;21.00;;;9.15;;
70899;SDS011;67902;52.154;5.430;2023-11-22T13:36:20;19.00;;;7.90;;
70899;SDS011;67902;52.154;5.430;2023-11-22T13:38:47;19.13;;;7.97;;
70899;SDS011;67902;52.154;5.430;2023-11-22T13:41:13;24.70;;;9.20;;
70899;SDS011;67902;52.154;5.430;2023-11-22T13:43:40;16.08;;;7.25;;
70899;SDS011;67902;52.154;5.430;2023-11-22T13:46:07;21.15;;;8.70;;
70899;SDS011;67902;52.154;5.430;2023-11-22T13:48:36;23.38;;;9.13;;
70899;SDS011;67902;52.154;5.430;2023-11-22T13:51:03;18.77;;;7.70;;
70899;SDS011;67902;52.154;5.430;2023-11-22T13:53:33;17.75;;;7.93;;
70899;SDS011;67902;52.154;5.430;2023-11-22T13:56:03;17.27;;;7.95;;
70899;SDS011;67902;52.154;5.430;2023-11-22T13:58:35;20.15;;;8.23;;
70899;SDS011;67902;52.154;5.430;2023-11-22T14:01:02;18.08;;;8.15;;
70899;SDS011;67902;52.154;5.430;2023-11-22T14:03:32;17.92;;;8.50;;
70899;SDS011;67902;52.154;5.430;2023-11-22T14:05:59;16.20;;;7.05;;
70899;SDS011;67902;52.154;5.430;2023-11-22T14:08:26;18.83;;;7.57;;
70899;SDS011;67902;52.154;5.430;2023-11-22T14:10:53;18.45;;;6.80;;
70899;SDS011;67902;52.154;5.430;2023-11-22T14:13:20;19.92;;;7.35;;
70899;SDS011;67902;52.154;5.430;2023-11-22T14:15:47;20.55;;;8.52;;
70899;SDS011;67902;52.154;5.430;2023-11-22T14:18:15;22.27;;;8.18;;
70899;SDS011;67902;52.154;5.430;2023-11-22T14:20:43;20.10;;;7.93;;
70899;SDS011;67902;52.154;5.430;2023-11-22T14:23:10;21.73;;;9.38;;
70899;SDS011;67902;52.154;5.430;2023-11-22T14:25:37;21.63;;;8.90;;
70899;SDS011;67902;52.154;5.430;2023-11-22T14:28:05;22.30;;;9.50;;
70899;SDS011;67902;52.154;5.430;2023-11-22T14:30:31;23.17;;;9.70;;
70899;SDS011;67902;52.154;5.430;2023-11-22T14:33:01;22.90;;;9.30;;
70899;SDS011;67902;52.154;5.430;2023-11-22T14:35:33;21.98;;;9.40;;
70899;SDS011;67902;52.154;5.430;2023-11-22T14:38:01;22.90;;;10.40;;
70899;SDS011;67902;52.154;5.430;2023-11-22T14:40:29;26.63;;;10.18;;
70899;SDS011;67902;52.154;5.430;2023-11-22T14:42:57;24.40;;;9.95;;
70899;SDS011;67902;52.154;5.430;2023-11-22T14:45:24;22.13;;;9.10;;
70899;SDS011;67902;52.154;5.430;2023-11-22T14:47:52;25.40;;;10.10;;
70899;SDS011;67902;52.154;5.430;2023-11-22T14:50:19;24.35;;;10.55;;
70899;SDS011;67902;52.154;5.430;2023-11-22T14:55:15;24.63;;;10.63;;
70899;SDS011;67902;52.154;5.430;2023-11-22T14:57:42;25.55;;;11.48;;
70899;SDS011;67902;52.154;5.430;2023-11-22T15:00:09;22.42;;;9.48;;
70899;SDS011;67902;52.154;5.430;2023-11-22T15:02:40;26.77;;;11.15;;
70899;SDS011;67902;52.154;5.430;2023-11-22T15:05:09;29.17;;;10.70;;